sensor_id;sensor_type;location;lat;lon;timestamp;P1;durP1;ratioP1;P2;durP2;ratioP2
67696;SDS011;54486;51.442;6.778;2022-12-29T00:00:22;5.03;;;1.20;;
67696;SDS011;54486;51.442;6.778;2022-12-29T00:02:49;4.35;;;1.13;;
67696;SDS011;54486;51.442;6.778;2022-12-29T00:05:17;5.30;;;1.50;;
67696;SDS011;54486;51.442;6.778;2022-12-29T00:07:44;4.78;;;1.33;;
67696;SDS011;54486;51.442;6.778;2022-12-29T00:10:11;5.32;;;1.70;;
67696;SDS011;54486;51.442;6.778;2022-12-29T00:12:39;4.55;;;1.35;;
67696;SDS011;54486;51.442;6.778;2022-12-29T00:15:24;4.67;;;1.47;;
67696;SDS011;54486;51.442;6.778;2022-12-29T00:18:04;5.57;;;1.30;;
67696;SDS011;54486;51.442;6.778;2022-12-29T00:20:33;5.95;;;1.80;;
67696;SDS011;54486;51.442;6.778;2022-12-29T00:23:20;6.80;;;2.17;;
67696;SDS011;54486;51.442;6.778;2022-12-29T00:26:16;5.47;;;1.48;;
67696;SDS011;54486;51.442;6.778;2022-12-29T00:29:16;5.25;;;1.75;;
67696;SDS011;54486;51.442;6.778;2022-12-29T00:32:03;4.22;;;1.13;;
67696;SDS011;54486;51.442;6.778;2022-12-29T00:34:50;4.20;;;1.25;;
67696;SDS011;54486;51.442;6.778;2022-12-29T00:37:39;4.93;;;1.33;;
67696;SDS011;54486;51.442;6.778;2022-12-29T00:40:30;4.38;;;1.17;;
67696;SDS011;54486;51.442;6.778;2022-12-29T00:43:16;5.32;;;1.23;;
67696;SDS011;54486;51.442;6.778;2022-12-29T00:46:01;5.53;;;1.20;;
67696;SDS011;54486;51.442;6.778;2022-12-29T00:48:29;4.47;;;1.13;;
67696;SDS011;54486;51.442;6.778;2022-12-29T00:51:14;4.68;;;1.30;;
67696;SDS011;54486;51.442;6.778;2022-12-29T00:53:40;4.93;;;1.42;;
67696;SDS011;54486;51.442;6.778;2022-12-29T00:56:08;4.13;;;1.15;;
67696;SDS011;54486;51.442;6.778;2022-12-29T00:58:35;4.22;;;1.13;;
67696;SDS011;54486;51.442;6.778;2022-12-29T01:01:06;3.75;;;1.00;;
67696;SDS011;54486;51.442;6.778;2022-12-29T01:03:36;3.83;;;1.00;;
67696;SDS011;54486;51.442;6.778;2022-12-29T01:06:04;4.18;;;1.27;;
67696;SDS011;54486;51.442;6.778;2022-12-29T01:08:33;4.10;;;1.20;;
67696;SDS011;54486;51.442;6.778;2022-12-29T01:11:02;4.85;;;1.20;;
67696;SDS011;54486;51.442;6.778;2022-12-29T01:13:33;4.90;;;1.10;;
67696;SDS011;54486;51.442;6.778;2022-12-29T01:16:01;3.97;;;1.30;;
67696;SDS011;54486;51.442;6.778;2022-12-29T01:18:28;5.53;;;1.53;;
67696;SDS011;54486;51.442;6.778;2022-12-29T01:20:59;6.55;;;1.90;;
67696;SDS011;54486;51.442;6.778;2022-12-29T01:23:27;6.38;;;1.77;;
67696;SDS011;54486;51.442;6.778;2022-12-29T01:25:55;5.47;;;1.58;;
67696;SDS011;54486;51.442;6.778;2022-12-29T01:28:23;6.13;;;1.60;;
67696;SDS011;54486;51.442;6.778;2022-12-29T01:30:51;5.47;;;1.60;;
67696;SDS011;54486;51.442;6.778;2022-12-29T01:33:18;5.97;;;1.75;;
67696;SDS011;54486;51.442;6.778;2022-12-29T01:35:45;5.38;;;1.40;;
67696;SDS011;54486;51.442;6.778;2022-12-29T01:38:12;4.00;;;1.25;;
67696;SDS011;54486;51.442;6.778;2022-12-29T01:40:43;3.45;;;0.98;;
67696;SDS011;54486;51.442;6.778;2022-12-29T01:43:13;4.65;;;1.20;;
67696;SDS011;54486;51.442;6.778;2022-12-29T01:45:43;4.47;;;1.15;;
67696;SDS011;54486;51.442;6.778;2022-12-29T01:48:15;4.43;;;1.20;;
67696;SDS011;54486;51.442;6.778;2022-12-29T01:50:46;3.92;;;1.35;;
67696;SDS011;54486;51.442;6.778;2022-12-29T01:53:18;4.38;;;1.40;;
67696;SDS011;54486;51.442;6.778;2022-12-29T01:55:55;4.80;;;1.30;;
67696;SDS011;54486;51.442;6.778;2022-12-29T01:58:27;4.93;;;1.37;;
67696;SDS011;54486;51.442;6.778;2022-12-29T02:01:00;4.23;;;1.13;;
67696;SDS011;54486;51.442;6.778;2022-12-29T02:03:29;4.15;;;1.30;;
67696;SDS011;54486;51.442;6.778;2022-12-29T02:06:03;4.50;;;1.25;;
67696;SDS011;54486;51.442;6.778;2022-12-29T02:08:38;4.30;;;1.40;;
67696;SDS011;54486;51.442;6.778;2022-12-29T02:11:07;6.03;;;1.67;;
67696;SDS011;54486;51.442;6.778;2022-12-29T02:13:35;5.20;;;1.58;;
67696;SDS011;54486;51.442;6.778;2022-12-29T02:16:14;7.20;;;1.88;;
67696;SDS011;54486;51.442;6.778;2022-12-29T02:27:50;7.65;;;2.33;;
67696;SDS011;54486;51.442;6.778;2022-12-29T02:36:12;8.40;;;2.75;;
67696;SDS011;54486;51.442;6.778;2022-12-29T02:47:15;6.38;;;1.88;;
67696;SDS011;54486;51.442;6.778;2022-12-29T02:49:54;7.20;;;2.17;;
67696;SDS011;54486;51.442;6.778;2022-12-29T02:52:27;6.97;;;2.35;;
67696;SDS011;54486;51.442;6.778;2022-12-29T02:55:01;7.60;;;2.07;;
67696;SDS011;54486;51.442;6.778;2022-12-29T02:57:30;7.95;;;2.20;;
67696;SDS011;54486;51.442;6.778;2022-12-29T03:00:02;8.40;;;2.15;;
67696;SDS011;54486;51.442;6.778;2022-12-29T03:08:27;7.30;;;2.10;;
67696;SDS011;54486;51.442;6.778;2022-12-29T03:11:07;6.90;;;1.75;;
67696;SDS011;54486;51.442;6.778;2022-12-29T03:16:59;8.33;;;2.50;;
67696;SDS011;54486;51.442;6.778;2022-12-29T03:19:35;8.02;;;2.40;;
67696;SDS011;54486;51.442;6.778;2022-12-29T03:22:08;8.40;;;2.80;;
67696;SDS011;54486;51.442;6.778;2022-12-29T03:24:59;8.57;;;2.75;;
67696;SDS011;54486;51.442;6.778;2022-12-29T03:27:35;10.02;;;3.10;;
67696;SDS011;54486;51.442;6.778;2022-12-29T03:30:06;8.23;;;2.60;;
67696;SDS011;54486;51.442;6.778;2022-12-29T03:32:40;8.55;;;2.40;;
67696;SDS011;54486;51.442;6.778;2022-12-29T03:35:12;7.97;;;2.80;;
67696;SDS011;54486;51.442;6.778;2022-12-29T03:37:44;8.30;;;2.85;;
67696;SDS011;54486;51.442;6.778;2022-12-29T03:40:38;8.65;;;3.25;;
67696;SDS011;54486;51.442;6.778;2022-12-29T03:43:08;8.98;;;2.80;;
67696;SDS011;54486;51.442;6.778;2022-12-29T03:45:37;8.43;;;2.38;;
67696;SDS011;54486;51.442;6.778;2022-12-29T03:48:04;6.93;;;2.20;;
67696;SDS011;54486;51.442;6.778;2022-12-29T03:50:31;7.47;;;2.20;;
67696;SDS011;54486;51.442;6.778;2022-12-29T03:52:59;7.50;;;2.30;;
67696;SDS011;54486;51.442;6.778;2022-12-29T03:55:26;9.52;;;2.90;;
67696;SDS011;54486;51.442;6.778;2022-12-29T03:57:53;7.35;;;2.08;;
67696;SDS011;54486;51.442;6.778;2022-12-29T04:00:20;6.63;;;1.88;;
67696;SDS011;54486;51.442;6.778;2022-12-29T04:02:47;6.72;;;1.67;;
67696;SDS011;54486;51.442;6.778;2022-12-29T04:05:15;5.90;;;1.65;;
67696;SDS011;54486;51.442;6.778;2022-12-29T04:07:43;6.25;;;1.63;;
67696;SDS011;54486;51.442;6.778;2022-12-29T04:10:09;4.60;;;1.45;;
67696;SDS011;54486;51.442;6.778;2022-12-29T04:12:36;4.70;;;1.10;;
67696;SDS011;54486;51.442;6.778;2022-12-29T04:15:03;5.03;;;1.33;;
67696;SDS011;54486;51.442;6.778;2022-12-29T04:17:31;4.97;;;1.20;;
67696;SDS011;54486;51.442;6.778;2022-12-29T04:19:58;5.22;;;1.48;;
67696;SDS011;54486;51.442;6.778;2022-12-29T04:22:45;4.70;;;1.20;;
67696;SDS011;54486;51.442;6.778;2022-12-29T04:25:12;5.05;;;1.50;;
67696;SDS011;54486;51.442;6.778;2022-12-29T04:27:40;5.47;;;1.20;;
67696;SDS011;54486;51.442;6.778;2022-12-29T04:30:07;5.00;;;1.50;;
67696;SDS011;54486;51.442;6.778;2022-12-29T04:32:35;6.20;;;1.58;;
67696;SDS011;54486;51.442;6.778;2022-12-29T04:35:02;6.20;;;1.60;;
67696;SDS011;54486;51.442;6.778;2022-12-29T04:37:29;7.75;;;2.00;;
67696;SDS011;54486;51.442;6.778;2022-12-29T04:39:56;8.93;;;2.00;;
67696;SDS011;54486;51.442;6.778;2022-12-29T04:42:23;7.00;;;1.88;;
67696;SDS011;54486;51.442;6.778;2022-12-29T04:44:50;7.75;;;2.10;;
67696;SDS011;54486;51.442;6.778;2022-12-29T04:47:17;7.37;;;1.93;;
67696;SDS011;54486;51.442;6.778;2022-12-29T04:49:44;8.18;;;2.13;;
67696;SDS011;54486;51.442;6.778;2022-12-29T04:52:11;6.65;;;2.10;;
67696;SDS011;54486;51.442;6.778;2022-12-29T04:54:38;6.40;;;1.52;;
67696;SDS011;54486;51.442;6.778;2022-12-29T04:57:06;4.67;;;1.40;;
67696;SDS011;54486;51.442;6.778;2022-12-29T04:59:33;4.47;;;1.00;;
67696;SDS011;54486;51.442;6.778;2022-12-29T05:02:00;6.00;;;1.30;;
67696;SDS011;54486;51.442;6.778;2022-12-29T05:04:28;4.57;;;1.00;;
67696;SDS011;54486;51.442;6.778;2022-12-29T05:06:54;4.82;;;1.30;;
67696;SDS011;54486;51.442;6.778;2022-12-29T05:09:22;4.60;;;1.30;;
67696;SDS011;54486;51.442;6.778;2022-12-29T05:11:50;5.20;;;1.20;;
67696;SDS011;54486;51.442;6.778;2022-12-29T05:14:17;4.33;;;1.10;;
67696;SDS011;54486;51.442;6.778;2022-12-29T05:16:44;4.90;;;1.02;;
67696;SDS011;54486;51.442;6.778;2022-12-29T05:19:11;4.63;;;1.27;;
67696;SDS011;54486;51.442;6.778;2022-12-29T05:21:38;5.97;;;1.27;;
67696;SDS011;54486;51.442;6.778;2022-12-29T05:24:06;5.40;;;1.37;;
67696;SDS011;54486;51.442;6.778;2022-12-29T05:26:33;4.90;;;1.00;;
67696;SDS011;54486;51.442;6.778;2022-12-29T05:29:00;5.03;;;1.27;;
67696;SDS011;54486;51.442;6.778;2022-12-29T05:31:27;6.38;;;1.20;;
67696;SDS011;54486;51.442;6.778;2022-12-29T05:33:54;4.97;;;1.38;;
67696;SDS011;54486;51.442;6.778;2022-12-29T05:36:21;4.75;;;1.30;;
67696;SDS011;54486;51.442;6.778;2022-12-29T05:38:49;5.13;;;1.27;;
67696;SDS011;54486;51.442;6.778;2022-12-29T05:41:16;5.95;;;1.25;;
67696;SDS011;54486;51.442;6.778;2022-12-29T05:43:45;5.35;;;1.25;;
67696;SDS011;54486;51.442;6.778;2022-12-29T05:46:12;7.15;;;1.80;;
67696;SDS011;54486;51.442;6.778;2022-12-29T05:48:40;5.38;;;1.27;;
67696;SDS011;54486;51.442;6.778;2022-12-29T05:51:07;5.32;;;1.27;;
67696;SDS011;54486;51.442;6.778;2022-12-29T05:53:35;4.97;;;1.03;;
67696;SDS011;54486;51.442;6.778;2022-12-29T05:56:02;5.05;;;1.40;;
67696;SDS011;54486;51.442;6.778;2022-12-29T05:58:29;5.63;;;1.30;;
67696;SDS011;54486;51.442;6.778;2022-12-29T06:00:56;5.53;;;1.30;;
67696;SDS011;54486;51.442;6.778;2022-12-29T06:03:23;5.47;;;1.27;;
67696;SDS011;54486;51.442;6.778;2022-12-29T06:05:51;4.82;;;1.45;;
67696;SDS011;54486;51.442;6.778;2022-12-29T06:08:18;5.50;;;1.20;;
67696;SDS011;54486;51.442;6.778;2022-12-29T06:10:45;4.68;;;1.25;;
67696;SDS011;54486;51.442;6.778;2022-12-29T06:13:12;5.38;;;1.20;;
67696;SDS011;54486;51.442;6.778;2022-12-29T06:15:39;5.75;;;1.38;;
67696;SDS011;54486;51.442;6.778;2022-12-29T06:18:07;6.20;;;1.40;;
67696;SDS011;54486;51.442;6.778;2022-12-29T06:20:34;6.83;;;1.30;;
67696;SDS011;54486;51.442;6.778;2022-12-29T06:23:01;5.53;;;1.47;;
67696;SDS011;54486;51.442;6.778;2022-12-29T06:25:28;5.22;;;1.25;;
67696;SDS011;54486;51.442;6.778;2022-12-29T06:27:57;5.07;;;1.08;;
67696;SDS011;54486;51.442;6.778;2022-12-29T06:30:25;6.35;;;1.40;;
67696;SDS011;54486;51.442;6.778;2022-12-29T06:32:51;7.15;;;1.73;;
67696;SDS011;54486;51.442;6.778;2022-12-29T06:35:19;6.45;;;1.35;;
67696;SDS011;54486;51.442;6.778;2022-12-29T06:37:46;7.07;;;1.40;;
67696;SDS011;54486;51.442;6.778;2022-12-29T06:40:14;7.35;;;1.08;;
67696;SDS011;54486;51.442;6.778;2022-12-29T06:42:41;7.75;;;1.58;;
67696;SDS011;54486;51.442;6.778;2022-12-29T06:45:08;5.65;;;1.38;;
67696;SDS011;54486;51.442;6.778;2022-12-29T06:47:36;4.70;;;1.13;;
67696;SDS011;54486;51.442;6.778;2022-12-29T06:50:04;6.25;;;1.20;;
67696;SDS011;54486;51.442;6.778;2022-12-29T06:52:31;5.85;;;1.42;;
67696;SDS011;54486;51.442;6.778;2022-12-29T06:54:58;6.70;;;1.50;;
67696;SDS011;54486;51.442;6.778;2022-12-29T06:57:26;6.60;;;1.50;;
67696;SDS011;54486;51.442;6.778;2022-12-29T06:59:53;5.70;;;1.20;;
67696;SDS011;54486;51.442;6.778;2022-12-29T07:02:22;6.03;;;1.37;;
67696;SDS011;54486;51.442;6.778;2022-12-29T07:04:52;6.68;;;1.30;;
67696;SDS011;54486;51.442;6.778;2022-12-29T07:07:20;6.43;;;1.30;;
67696;SDS011;54486;51.442;6.778;2022-12-29T07:09:47;6.43;;;1.60;;
67696;SDS011;54486;51.442;6.778;2022-12-29T07:12:14;6.43;;;1.60;;
67696;SDS011;54486;51.442;6.778;2022-12-29T07:14:42;7.90;;;1.80;;
67696;SDS011;54486;51.442;6.778;2022-12-29T07:17:10;5.53;;;1.40;;
67696;SDS011;54486;51.442;6.778;2022-12-29T07:19:37;6.43;;;1.23;;
67696;SDS011;54486;51.442;6.778;2022-12-29T07:22:03;6.57;;;1.60;;
67696;SDS011;54486;51.442;6.778;2022-12-29T07:24:32;7.05;;;1.48;;
67696;SDS011;54486;51.442;6.778;2022-12-29T07:26:59;6.57;;;1.50;;
67696;SDS011;54486;51.442;6.778;2022-12-29T07:29:26;5.80;;;1.70;;
67696;SDS011;54486;51.442;6.778;2022-12-29T07:31:54;5.88;;;1.48;;
67696;SDS011;54486;51.442;6.778;2022-12-29T07:34:21;7.40;;;1.70;;
67696;SDS011;54486;51.442;6.778;2022-12-29T07:36:48;6.70;;;1.40;;
67696;SDS011;54486;51.442;6.778;2022-12-29T07:39:15;6.68;;;1.80;;
67696;SDS011;54486;51.442;6.778;2022-12-29T07:41:42;6.95;;;1.30;;
67696;SDS011;54486;51.442;6.778;2022-12-29T07:44:10;7.07;;;1.50;;
67696;SDS011;54486;51.442;6.778;2022-12-29T07:46:38;5.75;;;1.38;;
67696;SDS011;54486;51.442;6.778;2022-12-29T07:49:22;6.87;;;1.40;;
67696;SDS011;54486;51.442;6.778;2022-12-29T07:51:49;7.22;;;1.63;;
67696;SDS011;54486;51.442;6.778;2022-12-29T07:54:16;9.38;;;1.70;;
67696;SDS011;54486;51.442;6.778;2022-12-29T07:56:45;8.70;;;1.90;;
67696;SDS011;54486;51.442;6.778;2022-12-29T07:59:12;7.10;;;1.50;;
67696;SDS011;54486;51.442;6.778;2022-12-29T08:01:39;6.88;;;1.60;;
67696;SDS011;54486;51.442;6.778;2022-12-29T08:04:07;7.97;;;1.50;;
67696;SDS011;54486;51.442;6.778;2022-12-29T08:06:34;9.98;;;1.92;;
67696;SDS011;54486;51.442;6.778;2022-12-29T08:09:02;8.88;;;2.15;;
67696;SDS011;54486;51.442;6.778;2022-12-29T08:11:42;8.07;;;1.58;;
67696;SDS011;54486;51.442;6.778;2022-12-29T08:14:10;8.30;;;1.80;;
67696;SDS011;54486;51.442;6.778;2022-12-29T08:16:38;9.87;;;1.87;;
67696;SDS011;54486;51.442;6.778;2022-12-29T08:19:05;9.55;;;1.85;;
67696;SDS011;54486;51.442;6.778;2022-12-29T08:21:33;7.90;;;2.15;;
67696;SDS011;54486;51.442;6.778;2022-12-29T08:24:00;7.72;;;1.52;;
67696;SDS011;54486;51.442;6.778;2022-12-29T08:26:27;8.48;;;1.80;;
67696;SDS011;54486;51.442;6.778;2022-12-29T08:28:54;7.72;;;1.50;;
67696;SDS011;54486;51.442;6.778;2022-12-29T08:31:22;7.75;;;1.70;;
67696;SDS011;54486;51.442;6.778;2022-12-29T08:33:50;8.10;;;1.80;;
67696;SDS011;54486;51.442;6.778;2022-12-29T08:36:17;8.95;;;1.60;;
67696;SDS011;54486;51.442;6.778;2022-12-29T08:38:45;8.80;;;1.57;;
67696;SDS011;54486;51.442;6.778;2022-12-29T08:41:12;7.55;;;1.70;;
67696;SDS011;54486;51.442;6.778;2022-12-29T08:43:39;8.63;;;1.85;;
67696;SDS011;54486;51.442;6.778;2022-12-29T08:46:06;7.70;;;1.73;;
67696;SDS011;54486;51.442;6.778;2022-12-29T08:48:34;9.55;;;1.77;;
67696;SDS011;54486;51.442;6.778;2022-12-29T08:51:01;8.03;;;1.93;;
67696;SDS011;54486;51.442;6.778;2022-12-29T08:53:28;8.00;;;1.60;;
67696;SDS011;54486;51.442;6.778;2022-12-29T08:55:56;10.48;;;1.80;;
67696;SDS011;54486;51.442;6.778;2022-12-29T08:58:31;8.87;;;1.57;;
67696;SDS011;54486;51.442;6.778;2022-12-29T09:00:58;8.52;;;1.92;;
67696;SDS011;54486;51.442;6.778;2022-12-29T09:03:25;9.02;;;1.90;;
67696;SDS011;54486;51.442;6.778;2022-12-29T09:06:13;7.93;;;1.27;;
67696;SDS011;54486;51.442;6.778;2022-12-29T09:08:42;7.77;;;1.53;;
67696;SDS011;54486;51.442;6.778;2022-12-29T09:11:11;8.70;;;1.67;;
67696;SDS011;54486;51.442;6.778;2022-12-29T09:13:44;8.43;;;1.60;;
67696;SDS011;54486;51.442;6.778;2022-12-29T09:16:12;10.80;;;1.90;;
67696;SDS011;54486;51.442;6.778;2022-12-29T09:18:39;7.55;;;1.90;;
67696;SDS011;54486;51.442;6.778;2022-12-29T09:21:07;7.88;;;1.40;;
67696;SDS011;54486;51.442;6.778;2022-12-29T09:23:34;9.23;;;1.65;;
67696;SDS011;54486;51.442;6.778;2022-12-29T09:26:02;8.60;;;1.80;;
67696;SDS011;54486;51.442;6.778;2022-12-29T09:28:31;9.10;;;1.80;;
67696;SDS011;54486;51.442;6.778;2022-12-29T09:30:58;9.13;;;1.80;;
67696;SDS011;54486;51.442;6.778;2022-12-29T09:33:25;8.02;;;1.80;;
67696;SDS011;54486;51.442;6.778;2022-12-29T09:35:57;8.48;;;1.50;;
67696;SDS011;54486;51.442;6.778;2022-12-29T09:38:25;7.73;;;1.57;;
67696;SDS011;54486;51.442;6.778;2022-12-29T09:40:55;8.70;;;1.65;;
67696;SDS011;54486;51.442;6.778;2022-12-29T09:46:18;7.22;;;1.42;;
67696;SDS011;54486;51.442;6.778;2022-12-29T09:48:55;7.82;;;1.75;;
67696;SDS011;54486;51.442;6.778;2022-12-29T09:51:31;8.82;;;2.25;;
67696;SDS011;54486;51.442;6.778;2022-12-29T09:54:07;9.30;;;1.83;;
67696;SDS011;54486;51.442;6.778;2022-12-29T09:57:01;11.37;;;1.77;;
67696;SDS011;54486;51.442;6.778;2022-12-29T10:00:02;11.27;;;2.05;;
67696;SDS011;54486;51.442;6.778;2022-12-29T10:02:41;10.25;;;1.90;;
67696;SDS011;54486;51.442;6.778;2022-12-29T10:05:16;9.27;;;1.67;;
67696;SDS011;54486;51.442;6.778;2022-12-29T10:10:59;10.95;;;1.80;;
67696;SDS011;54486;51.442;6.778;2022-12-29T10:24:04;9.15;;;1.85;;
67696;SDS011;54486;51.442;6.778;2022-12-29T10:27:05;9.15;;;1.80;;
67696;SDS011;54486;51.442;6.778;2022-12-29T10:30:10;10.98;;;1.88;;
67696;SDS011;54486;51.442;6.778;2022-12-29T10:33:08;9.60;;;1.80;;
67696;SDS011;54486;51.442;6.778;2022-12-29T10:36:16;9.82;;;2.10;;
67696;SDS011;54486;51.442;6.778;2022-12-29T10:39:30;9.15;;;1.70;;
67696;SDS011;54486;51.442;6.778;2022-12-29T10:42:07;9.98;;;2.22;;
67696;SDS011;54486;51.442;6.778;2022-12-29T10:44:40;10.57;;;2.22;;
67696;SDS011;54486;51.442;6.778;2022-12-29T10:47:16;8.57;;;1.65;;
67696;SDS011;54486;51.442;6.778;2022-12-29T10:49:47;10.73;;;1.83;;
67696;SDS011;54486;51.442;6.778;2022-12-29T10:52:16;9.43;;;1.70;;
67696;SDS011;54486;51.442;6.778;2022-12-29T10:54:57;10.77;;;1.80;;
67696;SDS011;54486;51.442;6.778;2022-12-29T10:57:34;8.45;;;1.70;;
67696;SDS011;54486;51.442;6.778;2022-12-29T11:00:10;8.50;;;1.90;;
67696;SDS011;54486;51.442;6.778;2022-12-29T11:05:19;10.60;;;1.80;;
67696;SDS011;54486;51.442;6.778;2022-12-29T11:07:57;8.98;;;1.85;;
67696;SDS011;54486;51.442;6.778;2022-12-29T11:10:35;9.40;;;2.00;;
67696;SDS011;54486;51.442;6.778;2022-12-29T11:13:11;8.60;;;1.90;;
67696;SDS011;54486;51.442;6.778;2022-12-29T11:15:51;9.83;;;2.07;;
67696;SDS011;54486;51.442;6.778;2022-12-29T11:18:35;9.35;;;2.00;;
67696;SDS011;54486;51.442;6.778;2022-12-29T11:21:05;10.10;;;1.92;;
67696;SDS011;54486;51.442;6.778;2022-12-29T11:24:36;9.48;;;1.90;;
67696;SDS011;54486;51.442;6.778;2022-12-29T11:26:49;9.85;;;2.25;;
67696;SDS011;54486;51.442;6.778;2022-12-29T11:29:28;8.80;;;1.97;;
67696;SDS011;54486;51.442;6.778;2022-12-29T11:32:10;10.90;;;2.13;;
67696;SDS011;54486;51.442;6.778;2022-12-29T11:34:39;10.10;;;1.60;;
67696;SDS011;54486;51.442;6.778;2022-12-29T11:37:10;9.93;;;2.13;;
67696;SDS011;54486;51.442;6.778;2022-12-29T11:42:17;9.75;;;1.92;;
67696;SDS011;54486;51.442;6.778;2022-12-29T11:44:50;8.63;;;2.15;;
67696;SDS011;54486;51.442;6.778;2022-12-29T11:47:25;11.63;;;2.08;;
67696;SDS011;54486;51.442;6.778;2022-12-29T11:50:05;11.05;;;1.98;;
67696;SDS011;54486;51.442;6.778;2022-12-29T11:52:35;9.88;;;1.90;;
67696;SDS011;54486;51.442;6.778;2022-12-29T11:55:06;9.03;;;1.77;;
67696;SDS011;54486;51.442;6.778;2022-12-29T11:57:49;11.55;;;2.28;;
67696;SDS011;54486;51.442;6.778;2022-12-29T12:00:19;9.80;;;1.70;;
67696;SDS011;54486;51.442;6.778;2022-12-29T12:03:34;8.77;;;2.10;;
67696;SDS011;54486;51.442;6.778;2022-12-29T12:11:25;10.75;;;2.00;;
67696;SDS011;54486;51.442;6.778;2022-12-29T12:17:09;9.50;;;1.77;;
67696;SDS011;54486;51.442;6.778;2022-12-29T12:19:42;12.05;;;2.00;;
67696;SDS011;54486;51.442;6.778;2022-12-29T12:22:31;8.80;;;1.92;;
67696;SDS011;54486;51.442;6.778;2022-12-29T12:25:02;8.50;;;2.00;;
67696;SDS011;54486;51.442;6.778;2022-12-29T12:27:43;11.05;;;2.10;;
67696;SDS011;54486;51.442;6.778;2022-12-29T12:30:23;9.90;;;2.08;;
67696;SDS011;54486;51.442;6.778;2022-12-29T12:33:03;9.67;;;1.90;;
67696;SDS011;54486;51.442;6.778;2022-12-29T12:49:21;9.98;;;1.98;;
67696;SDS011;54486;51.442;6.778;2022-12-29T12:52:08;10.50;;;2.25;;
67696;SDS011;54486;51.442;6.778;2022-12-29T12:54:56;9.85;;;2.10;;
67696;SDS011;54486;51.442;6.778;2022-12-29T13:00:10;10.02;;;2.20;;
67696;SDS011;54486;51.442;6.778;2022-12-29T13:23:09;12.05;;;2.28;;
67696;SDS011;54486;51.442;6.778;2022-12-29T13:28:51;8.77;;;2.03;;
67696;SDS011;54486;51.442;6.778;2022-12-29T13:31:32;8.73;;;2.10;;
67696;SDS011;54486;51.442;6.778;2022-12-29T13:34:12;10.90;;;2.15;;
67696;SDS011;54486;51.442;6.778;2022-12-29T13:37:02;9.65;;;2.13;;
67696;SDS011;54486;51.442;6.778;2022-12-29T13:39:37;11.20;;;2.13;;
67696;SDS011;54486;51.442;6.778;2022-12-29T13:42:08;8.80;;;2.00;;
67696;SDS011;54486;51.442;6.778;2022-12-29T13:44:43;10.63;;;2.10;;
67696;SDS011;54486;51.442;6.778;2022-12-29T13:49:57;12.30;;;2.43;;
67696;SDS011;54486;51.442;6.778;2022-12-29T13:52:35;9.82;;;2.25;;
67696;SDS011;54486;51.442;6.778;2022-12-29T13:58:03;10.30;;;2.08;;
67696;SDS011;54486;51.442;6.778;2022-12-29T14:00:49;9.77;;;1.92;;
67696;SDS011;54486;51.442;6.778;2022-12-29T14:06:12;8.82;;;1.70;;
67696;SDS011;54486;51.442;6.778;2022-12-29T14:08:43;9.63;;;2.20;;
67696;SDS011;54486;51.442;6.778;2022-12-29T14:11:11;9.75;;;2.35;;
67696;SDS011;54486;51.442;6.778;2022-12-29T14:13:42;10.73;;;1.95;;
67696;SDS011;54486;51.442;6.778;2022-12-29T14:16:24;11.48;;;3.00;;
67696;SDS011;54486;51.442;6.778;2022-12-29T14:18:57;10.05;;;2.30;;
67696;SDS011;54486;51.442;6.778;2022-12-29T14:21:32;8.77;;;1.73;;
67696;SDS011;54486;51.442;6.778;2022-12-29T14:34:53;9.10;;;1.80;;
67696;SDS011;54486;51.442;6.778;2022-12-29T14:37:32;9.25;;;1.80;;
67696;SDS011;54486;51.442;6.778;2022-12-29T14:40:17;11.35;;;2.00;;
67696;SDS011;54486;51.442;6.778;2022-12-29T14:42:50;9.85;;;2.00;;
67696;SDS011;54486;51.442;6.778;2022-12-29T14:47:50;9.95;;;2.17;;
67696;SDS011;54486;51.442;6.778;2022-12-29T14:53:02;10.03;;;2.10;;
67696;SDS011;54486;51.442;6.778;2022-12-29T14:55:37;10.13;;;2.20;;
67696;SDS011;54486;51.442;6.778;2022-12-29T14:58:07;11.02;;;2.17;;
67696;SDS011;54486;51.442;6.778;2022-12-29T15:00:42;9.98;;;2.30;;
67696;SDS011;54486;51.442;6.778;2022-12-29T15:03:14;11.60;;;2.67;;
67696;SDS011;54486;51.442;6.778;2022-12-29T15:05:49;9.53;;;2.40;;
67696;SDS011;54486;51.442;6.778;2022-12-29T15:08:20;9.90;;;2.30;;
67696;SDS011;54486;51.442;6.778;2022-12-29T15:11:30;9.90;;;2.40;;
67696;SDS011;54486;51.442;6.778;2022-12-29T15:17:01;9.95;;;2.50;;
67696;SDS011;54486;51.442;6.778;2022-12-29T15:19:36;8.95;;;1.85;;
67696;SDS011;54486;51.442;6.778;2022-12-29T15:22:03;11.20;;;2.00;;
67696;SDS011;54486;51.442;6.778;2022-12-29T15:24:31;9.98;;;2.65;;
67696;SDS011;54486;51.442;6.778;2022-12-29T15:27:06;10.53;;;2.20;;
67696;SDS011;54486;51.442;6.778;2022-12-29T15:29:38;9.38;;;2.22;;
67696;SDS011;54486;51.442;6.778;2022-12-29T15:32:25;9.35;;;2.20;;
67696;SDS011;54486;51.442;6.778;2022-12-29T15:34:55;10.43;;;2.10;;
67696;SDS011;54486;51.442;6.778;2022-12-29T15:37:27;8.35;;;2.22;;
67696;SDS011;54486;51.442;6.778;2022-12-29T15:39:58;8.30;;;2.03;;
67696;SDS011;54486;51.442;6.778;2022-12-29T15:42:40;10.88;;;2.20;;
67696;SDS011;54486;51.442;6.778;2022-12-29T15:45:11;8.77;;;2.10;;
67696;SDS011;54486;51.442;6.778;2022-12-29T15:47:41;11.63;;;2.00;;
67696;SDS011;54486;51.442;6.778;2022-12-29T15:50:14;8.90;;;2.30;;
67696;SDS011;54486;51.442;6.778;2022-12-29T15:52:55;9.93;;;2.00;;
67696;SDS011;54486;51.442;6.778;2022-12-29T15:55:28;12.48;;;2.30;;
67696;SDS011;54486;51.442;6.778;2022-12-29T15:58:00;9.30;;;2.13;;
67696;SDS011;54486;51.442;6.778;2022-12-29T16:00:33;9.20;;;1.92;;
67696;SDS011;54486;51.442;6.778;2022-12-29T16:03:04;9.63;;;1.83;;
67696;SDS011;54486;51.442;6.778;2022-12-29T16:05:39;9.27;;;2.10;;
67696;SDS011;54486;51.442;6.778;2022-12-29T16:08:20;11.30;;;2.15;;
67696;SDS011;54486;51.442;6.778;2022-12-29T16:10:47;8.88;;;2.05;;
67696;SDS011;54486;51.442;6.778;2022-12-29T16:13:18;7.90;;;1.98;;
67696;SDS011;54486;51.442;6.778;2022-12-29T16:15:51;8.60;;;2.27;;
67696;SDS011;54486;51.442;6.778;2022-12-29T16:18:23;8.95;;;1.80;;
67696;SDS011;54486;51.442;6.778;2022-12-29T16:20:53;8.75;;;2.20;;
67696;SDS011;54486;51.442;6.778;2022-12-29T16:23:24;10.60;;;2.67;;
67696;SDS011;54486;51.442;6.778;2022-12-29T16:25:54;9.98;;;2.15;;
67696;SDS011;54486;51.442;6.778;2022-12-29T16:28:27;10.20;;;2.50;;
67696;SDS011;54486;51.442;6.778;2022-12-29T16:31:03;11.18;;;2.42;;
67696;SDS011;54486;51.442;6.778;2022-12-29T16:33:36;9.88;;;2.22;;
67696;SDS011;54486;51.442;6.778;2022-12-29T16:36:21;12.25;;;2.55;;
67696;SDS011;54486;51.442;6.778;2022-12-29T16:38:50;10.90;;;2.50;;
67696;SDS011;54486;51.442;6.778;2022-12-29T16:41:30;11.27;;;2.77;;
67696;SDS011;54486;51.442;6.778;2022-12-29T16:46:56;9.93;;;2.40;;
67696;SDS011;54486;51.442;6.778;2022-12-29T16:49:31;13.63;;;2.70;;
67696;SDS011;54486;51.442;6.778;2022-12-29T16:51:59;11.25;;;3.35;;
67696;SDS011;54486;51.442;6.778;2022-12-29T16:54:30;12.35;;;3.03;;
67696;SDS011;54486;51.442;6.778;2022-12-29T16:57:01;7.00;;;1.40;;
67696;SDS011;54486;51.442;6.778;2022-12-29T17:02:07;5.90;;;1.38;;
67696;SDS011;54486;51.442;6.778;2022-12-29T17:04:41;7.70;;;1.38;;
67696;SDS011;54486;51.442;6.778;2022-12-29T17:07:11;5.28;;;1.40;;
67696;SDS011;54486;51.442;6.778;2022-12-29T17:09:45;6.75;;;1.10;;
67696;SDS011;54486;51.442;6.778;2022-12-29T17:12:25;5.72;;;1.35;;
67696;SDS011;54486;51.442;6.778;2022-12-29T17:15:02;6.40;;;1.10;;
67696;SDS011;54486;51.442;6.778;2022-12-29T17:17:38;7.05;;;1.30;;
67696;SDS011;54486;51.442;6.778;2022-12-29T17:22:46;6.20;;;1.60;;
67696;SDS011;54486;51.442;6.778;2022-12-29T17:25:15;5.25;;;1.50;;
67696;SDS011;54486;51.442;6.778;2022-12-29T17:27:48;5.90;;;1.67;;
67696;SDS011;54486;51.442;6.778;2022-12-29T17:30:20;6.93;;;2.10;;
67696;SDS011;54486;51.442;6.778;2022-12-29T17:32:58;8.10;;;1.60;;
67696;SDS011;54486;51.442;6.778;2022-12-29T17:35:36;8.93;;;2.87;;